createdAt,value
2018-02-16T00:00:14.145Z,97825.40
2018-02-16T00:00:45.777Z,97830.53
2018-02-16T00:01:17.405Z,97824.98
2018-02-16T00:01:49.034Z,97831.38
2018-02-16T00:02:20.659Z,97826.27
2018-02-16T00:02:52.286Z,97831.80
2018-02-16T00:03:23.958Z,97831.02
2018-02-16T00:03:55.586Z,97828.41
2018-02-16T00:04:27.214Z,97838.23
2018-02-16T00:04:58.889Z,97837.41
2018-02-16T00:05:30.518Z,97842.08
2018-02-16T00:06:02.154Z,97844.63
2018-02-16T00:06:33.786Z,97849.30
2018-02-16T00:07:05.414Z,97846.69
2018-02-16T00:07:37.037Z,97848.38
2018-02-16T00:08:08.666Z,97843.70
2018-02-16T00:08:40.292Z,97842.86
2018-02-16T00:09:11.925Z,97845.84
2018-02-16T00:09:43.550Z,97843.78
2018-02-16T00:10:15.225Z,97839.50
2018-02-16T00:10:46.854Z,97836.06
2018-02-16T00:11:18.481Z,97836.53
2018-02-16T00:11:50.110Z,97835.27
2018-02-16T00:12:21.741Z,97834.43
2018-02-16T00:12:53.374Z,97836.55
2018-02-16T00:13:25.001Z,97828.87
2018-02-16T00:13:56.622Z,97833.98
2018-02-16T00:14:28.253Z,97830.16
2018-02-16T00:14:59.880Z,97834.84
2018-02-16T00:15:31.545Z,97837.41
2018-02-16T00:16:03.210Z,97836.98
2018-02-16T00:16:34.838Z,97844.69
2018-02-16T00:17:06.470Z,97843.36
2018-02-16T00:17:38.097Z,97840.38
2018-02-16T00:18:09.726Z,97847.62
2018-02-16T00:18:41.358Z,97845.06
2018-02-16T00:19:12.994Z,97843.00
2018-02-16T00:19:44.625Z,97844.70
2018-02-16T00:20:16.290Z,97843.00
2018-02-16T00:20:47.958Z,97845.55
2018-02-16T00:21:19.585Z,97848.58
2018-02-16T00:21:51.205Z,97838.81
2018-02-16T00:22:22.838Z,97837.53
2018-02-16T00:22:54.514Z,97836.67
2018-02-16T00:23:26.141Z,97837.09
2018-02-16T00:23:57.774Z,97837.48
2018-02-16T00:24:29.398Z,97840.45
2018-02-16T00:25:01.028Z,97840.45
2018-02-16T00:25:32.705Z,97843.85
2018-02-16T00:26:04.326Z,97839.17
2018-02-16T00:26:35.954Z,97846.39
2018-02-16T00:27:07.581Z,97842.58
2018-02-16T00:27:39.201Z,97843.00
2018-02-16T00:28:10.826Z,97849.39
2018-02-16T00:28:42.453Z,97847.31
2018-02-16T00:29:14.081Z,97845.19
2018-02-16T00:29:45.713Z,97852.00
2018-02-16T00:30:17.348Z,97854.11
2018-02-16T00:30:49.027Z,97852.84
2018-02-16T00:31:20.650Z,97846.89
2018-02-16T00:31:52.274Z,97843.55
2018-02-16T00:32:23.904Z,97849.52
2018-02-16T00:32:55.529Z,97845.23
2018-02-16T00:33:27.157Z,97847.75
2018-02-16T00:33:58.785Z,97852.84
2018-02-16T00:34:30.414Z,97852.44
2018-02-16T00:35:02.041Z,97855.41
2018-02-16T00:35:33.717Z,97852.44
2018-02-16T00:36:05.341Z,97853.77
2018-02-16T00:36:36.970Z,97850.30
2018-02-16T00:37:08.597Z,97857.09
2018-02-16T00:37:40.222Z,97851.57
2018-02-16T00:38:11.894Z,97850.73
2018-02-16T00:38:43.513Z,97854.56
2018-02-16T00:39:15.143Z,97851.63
2018-02-16T00:39:46.776Z,97855.03
2018-02-16T00:40:18.401Z,97857.60
2018-02-16T00:40:50.070Z,97860.16
2018-02-16T00:41:21.708Z,97853.77
2018-02-16T00:41:53.341Z,97855.05
2018-02-16T00:42:24.969Z,97857.58
2018-02-16T00:42:56.598Z,97855.89
2018-02-16T00:43:28.228Z,97858.75
2018-02-16T00:43:59.861Z,97855.70
2018-02-16T00:44:31.489Z,97861.29
2018-02-16T00:45:03.117Z,97851.94
2018-02-16T00:45:34.790Z,97858.69
2018-02-16T00:46:06.413Z,97851.52
2018-02-16T00:46:38.033Z,97854.06
2018-02-16T00:47:09.662Z,97854.91
2018-02-16T00:47:41.286Z,97855.39
2018-02-16T00:48:12.961Z,97857.05
2018-02-16T00:48:44.609Z,97859.58
2018-02-16T00:49:16.238Z,97857.52
2018-02-16T00:49:47.866Z,97860.94
2018-02-16T00:50:19.490Z,97855.41
2018-02-16T00:50:51.122Z,97861.38
2018-02-16T00:51:22.748Z,97860.14
2018-02-16T00:51:54.378Z,97857.18
2018-02-16T00:52:26.001Z,97861.00
2018-02-16T00:52:57.629Z,97857.60
2018-02-16T00:53:29.262Z,97854.20
2018-02-16T00:54:00.890Z,97853.70
2018-02-16T00:54:32.522Z,97853.33
2018-02-16T00:55:04.185Z,97855.03
2018-02-16T00:55:35.814Z,97855.89
2018-02-16T00:56:07.439Z,97848.59
2018-02-16T00:56:39.070Z,97853.27
2018-02-16T00:57:10.697Z,97855.34
2018-02-16T00:57:42.334Z,97850.16
2018-02-16T00:58:13.966Z,97849.31
2018-02-16T00:58:45.589Z,97853.64
2018-02-16T00:59:17.217Z,97858.75
2018-02-16T00:59:48.939Z,97856.61
2018-02-16T01:00:20.554Z,97854.91
2018-02-16T01:00:52.182Z,97854.91
2018-02-16T01:01:23.805Z,97861.23
2018-02-16T01:01:55.435Z,97863.42
2018-02-16T01:02:27.066Z,97861.72
2018-02-16T01:02:58.693Z,97857.90
2018-02-16T01:03:30.313Z,97860.45
2018-02-16T01:04:01.934Z,97858.80
2018-02-16T01:04:33.562Z,97858.80
2018-02-16T01:05:05.233Z,97862.64
2018-02-16T01:05:36.865Z,97860.08
2018-02-16T01:06:08.497Z,97857.09
2018-02-16T01:06:41.141Z,97864.27
2018-02-16T01:07:12.763Z,97858.31
2018-02-16T01:07:44.388Z,97862.50
2018-02-16T01:08:16.016Z,97860.43
2018-02-16T01:08:47.645Z,97861.23
2018-02-16T01:09:19.269Z,97861.29
2018-02-16T01:09:50.898Z,97858.33
2018-02-16T01:10:22.570Z,97860.06
2018-02-16T01:10:54.202Z,97860.52
2018-02-16T01:11:25.830Z,97853.69
2018-02-16T01:11:57.453Z,97857.90
2018-02-16T01:12:29.073Z,97859.66
2018-02-16T01:13:00.695Z,97863.92
2018-02-16T01:13:32.329Z,97859.22
2018-02-16T01:14:03.958Z,97861.80
2018-02-16T01:14:35.613Z,97852.91
2018-02-16T01:15:07.277Z,97859.23
2018-02-16T01:15:38.899Z,97859.66
2018-02-16T01:16:10.533Z,97860.95
2018-02-16T01:16:42.161Z,97852.86
2018-02-16T01:17:13.805Z,97857.53
2018-02-16T01:17:45.434Z,97854.56
2018-02-16T01:18:17.062Z,97860.09
2018-02-16T01:18:48.689Z,97860.09
2018-02-16T01:19:20.322Z,97855.84
2018-02-16T01:19:51.945Z,97854.11
2018-02-16T01:20:23.573Z,97850.72
2018-02-16T01:20:55.237Z,97857.58
2018-02-16T01:21:26.858Z,97849.94
2018-02-16T01:21:58.481Z,97853.28
2018-02-16T01:22:30.110Z,97852.47
2018-02-16T01:23:01.782Z,97855.45
2018-02-16T01:23:33.409Z,97853.39
2018-02-16T01:24:05.037Z,97855.05
2018-02-16T01:24:36.669Z,97854.19
2018-02-16T01:25:08.301Z,97856.31
2018-02-16T01:25:39.921Z,97859.72
2018-02-16T01:26:11.545Z,97861.48
2018-02-16T01:26:43.174Z,97858.93
2018-02-16T01:27:14.803Z,97864.39
2018-02-16T01:27:46.430Z,97857.59
2018-02-16T01:28:18.106Z,97861.42
2018-02-16T01:28:49.733Z,97866.55
2018-02-16T01:29:21.362Z,97867.75
2018-02-16T01:29:52.990Z,97867.75
2018-02-16T01:30:24.613Z,97869.52
2018-02-16T01:30:56.242Z,97875.89
2018-02-16T01:31:27.865Z,97876.31
2018-02-16T01:31:59.494Z,97876.75
2018-02-16T01:32:31.117Z,97880.64
2018-02-16T01:33:02.742Z,97875.84
2018-02-16T01:33:34.414Z,97877.95
2018-02-16T01:34:06.077Z,97883.97
2018-02-16T01:34:37.702Z,97876.31
2018-02-16T01:35:09.330Z,97884.42
2018-02-16T01:35:40.957Z,97880.16
2018-02-16T01:36:12.577Z,97883.14
2018-02-16T01:36:44.209Z,97877.35
2018-02-16T01:37:15.893Z,97885.75
2018-02-16T01:37:47.513Z,97879.85
2018-02-16T01:38:19.177Z,97881.49
2018-02-16T01:38:50.804Z,97882.34
2018-02-16T01:39:22.438Z,97879.84
2018-02-16T01:39:54.069Z,97881.92
2018-02-16T01:40:25.698Z,97885.75
2018-02-16T01:40:57.330Z,97879.36
2018-02-16T01:41:28.958Z,97884.94
2018-02-16T01:42:00.634Z,97881.55
2018-02-16T01:42:32.257Z,97882.39
2018-02-16T01:43:03.885Z,97881.05
2018-02-16T01:43:35.509Z,97874.31
2018-02-16T01:44:07.133Z,97876.40
2018-02-16T01:44:38.767Z,97877.30
2018-02-16T01:45:10.389Z,97880.63
2018-02-16T01:45:42.020Z,97880.63
2018-02-16T01:46:13.653Z,97878.52
2018-02-16T01:46:45.314Z,97880.63
2018-02-16T01:47:16.985Z,97878.03
2018-02-16T01:47:48.614Z,97875.91
2018-02-16T01:48:21.254Z,97875.47
2018-02-16T01:48:52.878Z,97875.47
2018-02-16T01:49:24.505Z,97881.86
2018-02-16T01:49:56.126Z,97879.73
2018-02-16T01:50:27.750Z,97886.97
2018-02-16T01:50:59.373Z,97886.11
2018-02-16T01:51:31.002Z,97878.02
2018-02-16T01:52:02.669Z,97882.20
2018-02-16T01:52:34.293Z,97882.07
2018-02-16T01:53:05.919Z,97885.37
2018-02-16T01:53:37.586Z,97888.34
2018-02-16T01:54:09.214Z,97887.42
2018-02-16T01:54:40.850Z,97884.86
2018-02-16T01:55:12.473Z,97889.55
2018-02-16T01:55:44.093Z,97890.41
2018-02-16T01:56:15.717Z,97887.91
2018-02-16T01:56:47.350Z,97884.45
2018-02-16T01:57:18.981Z,97881.09
2018-02-16T01:57:50.654Z,97889.05
2018-02-16T01:58:22.277Z,97875.44
2018-02-16T01:58:53.901Z,97886.56
2018-02-16T01:59:25.529Z,97887.98
2018-02-16T01:59:57.158Z,97892.38
2018-02-16T02:00:28.838Z,97895.05
2018-02-16T02:01:00.464Z,97891.28
2018-02-16T02:01:32.085Z,97891.28
2018-02-16T02:02:03.721Z,97891.77
2018-02-16T02:02:35.350Z,97891.82
2018-02-16T02:03:06.974Z,97890.98
2018-02-16T02:03:38.598Z,97890.98
2018-02-16T02:04:10.229Z,97893.96
2018-02-16T02:04:41.849Z,97900.34
2018-02-16T02:05:13.477Z,97893.48
2018-02-16T02:05:45.149Z,97898.16
2018-02-16T02:06:16.780Z,97893.04
2018-02-16T02:06:48.454Z,97896.02
2018-02-16T02:07:20.085Z,97891.76
2018-02-16T02:07:51.741Z,97884.96
2018-02-16T02:08:23.369Z,97884.16
2018-02-16T02:08:54.998Z,97883.69
2018-02-16T02:09:26.626Z,97885.86
2018-02-16T02:09:58.249Z,97886.73
2018-02-16T02:10:29.878Z,97879.85
2018-02-16T02:11:01.506Z,97882.48
2018-02-16T02:11:33.129Z,97880.81
2018-02-16T02:12:04.811Z,97887.59
2018-02-16T02:12:36.437Z,97888.00
2018-02-16T02:13:08.057Z,97878.59
2018-02-16T02:13:39.686Z,97881.18
2018-02-16T02:14:11.310Z,97876.45
2018-02-16T02:14:42.934Z,97876.03
2018-02-16T02:15:14.565Z,97884.97
2018-02-16T02:15:46.195Z,97881.61
2018-02-16T02:16:17.821Z,97880.34
2018-02-16T02:16:49.449Z,97881.60
2018-02-16T02:17:21.129Z,97883.74
2018-02-16T02:17:52.758Z,97893.09
2018-02-16T02:18:24.386Z,97894.80
2018-02-16T02:18:56.010Z,97893.48
2018-02-16T02:19:27.629Z,97895.64
2018-02-16T02:19:59.257Z,97899.44
2018-02-16T02:20:30.885Z,97905.44
2018-02-16T02:21:02.514Z,97902.45
2018-02-16T02:21:34.141Z,97903.30
2018-02-16T02:22:05.778Z,97907.56
2018-02-16T02:22:37.450Z,97906.25
2018-02-16T02:23:09.074Z,97910.06
2018-02-16T02:23:40.701Z,97903.69
2018-02-16T02:24:12.334Z,97908.41
2018-02-16T02:24:43.962Z,97908.00
2018-02-16T02:25:15.638Z,97899.86
2018-02-16T02:25:47.261Z,97905.86
2018-02-16T02:26:18.890Z,97899.91
2018-02-16T02:26:50.513Z,97893.65
2018-02-16T02:27:22.133Z,97898.63
2018-02-16T02:27:53.814Z,97899.91
2018-02-16T02:28:25.461Z,97905.03
2018-02-16T02:28:57.091Z,97901.20
2018-02-16T02:29:28.714Z,97905.07
2018-02-16T02:30:00.346Z,97893.54
2018-02-16T02:30:31.970Z,97887.59
2018-02-16T02:31:03.593Z,97893.53
2018-02-16T02:31:35.229Z,97893.12
2018-02-16T02:32:06.856Z,97892.25
2018-02-16T02:32:38.485Z,97890.08
2018-02-16T02:33:10.166Z,97894.33
2018-02-16T02:33:41.786Z,97896.45
2018-02-16T02:34:13.414Z,97890.91
2018-02-16T02:34:45.042Z,97891.41
2018-02-16T02:35:16.670Z,97887.59
2018-02-16T02:35:48.298Z,97890.98
2018-02-16T02:36:19.922Z,97892.25
2018-02-16T02:36:51.550Z,97891.03
2018-02-16T02:37:23.185Z,97890.98
2018-02-16T02:37:54.813Z,97890.13
2018-02-16T02:38:26.487Z,97896.52
2018-02-16T02:38:58.119Z,97889.75
2018-02-16T02:39:29.746Z,97888.05
2018-02-16T02:40:01.434Z,97886.78
2018-02-16T02:40:33.057Z,97890.61
2018-02-16T02:41:04.682Z,97887.64
2018-02-16T02:41:36.310Z,97890.61
2018-02-16T02:42:07.938Z,97893.59
2018-02-16T02:42:39.570Z,97891.89
2018-02-16T02:43:11.194Z,97891.03
2018-02-16T02:43:42.821Z,97894.02
2018-02-16T02:44:14.445Z,97892.27
2018-02-16T02:44:46.125Z,97894.44
2018-02-16T02:45:17.759Z,97895.35
2018-02-16T02:45:49.382Z,97897.48
2018-02-16T02:46:21.046Z,97896.64
2018-02-16T02:46:52.677Z,97905.56
2018-02-16T02:47:24.301Z,97908.54
2018-02-16T02:47:55.934Z,97910.67
2018-02-16T02:48:27.561Z,97912.67
2018-02-16T02:48:59.193Z,97914.33
2018-02-16T02:49:30.818Z,97907.52
2018-02-16T02:50:02.492Z,97913.52
2018-02-16T02:50:34.123Z,97908.36
2018-02-16T02:51:05.818Z,97918.13
2018-02-16T02:51:37.446Z,97913.02
2018-02-16T02:52:09.074Z,97916.85
2018-02-16T02:52:40.706Z,97910.43
2018-02-16T02:53:12.334Z,97910.86
2018-02-16T02:53:43.959Z,97909.20
2018-02-16T02:54:15.581Z,97905.75
2018-02-16T02:54:47.210Z,97904.47
2018-02-16T02:55:18.840Z,97901.12
2018-02-16T02:55:50.470Z,97902.77
2018-02-16T02:56:22.142Z,97901.08
2018-02-16T02:56:53.774Z,97904.95
2018-02-16T02:57:25.414Z,97910.86
2018-02-16T02:57:57.066Z,97910.05
2018-02-16T02:58:28.689Z,97917.66
2018-02-16T02:59:00.310Z,97909.16
2018-02-16T02:59:31.934Z,97910.06
2018-02-16T03:00:03.561Z,97905.86
2018-02-16T03:00:35.196Z,97906.23
2018-02-16T03:01:06.825Z,97905.87
2018-02-16T03:01:38.506Z,97910.98
2018-02-16T03:02:10.135Z,97910.13
2018-02-16T03:02:41.762Z,97906.30
2018-02-16T03:03:13.387Z,97907.52
2018-02-16T03:03:45.010Z,97915.16
2018-02-16T03:04:16.638Z,97913.41
2018-02-16T03:04:48.297Z,97915.09
2018-02-16T03:05:19.925Z,97913.78
2018-02-16T03:05:51.546Z,97908.28
2018-02-16T03:06:23.165Z,97916.75
2018-02-16T03:06:54.839Z,97909.94
2018-02-16T03:07:26.528Z,97910.47
2018-02-16T03:07:58.162Z,97910.48
2018-02-16T03:08:29.789Z,97910.48
2018-02-16T03:09:01.409Z,97906.71
2018-02-16T03:09:33.038Z,97906.30
2018-02-16T03:10:04.658Z,97908.06
2018-02-16T03:10:36.286Z,97911.03
2018-02-16T03:11:07.910Z,97912.30
2018-02-16T03:11:39.534Z,97913.59
2018-02-16T03:12:11.166Z,97914.92
2018-02-16T03:12:42.793Z,97918.34
2018-02-16T03:13:14.474Z,97914.51
2018-02-16T03:13:46.142Z,97922.17
2018-02-16T03:14:17.822Z,97917.91
2018-02-16T03:14:49.442Z,97919.19
2018-02-16T03:15:21.065Z,97921.74
2018-02-16T03:15:52.689Z,97923.02
2018-02-16T03:16:24.309Z,97921.30
2018-02-16T03:16:55.933Z,97920.52
2018-02-16T03:17:27.553Z,97928.61
2018-02-16T03:17:59.174Z,97927.39
2018-02-16T03:18:30.797Z,97932.86
2018-02-16T03:19:02.417Z,97935.00
2018-02-16T03:19:34.093Z,97935.42
2018-02-16T03:20:05.725Z,97944.76
2018-02-16T03:20:37.350Z,97940.53
2018-02-16T03:21:08.973Z,97936.80
2018-02-16T03:21:40.593Z,97946.53
2018-02-16T03:22:12.217Z,97942.27
2018-02-16T03:22:43.838Z,97949.52
2018-02-16T03:23:15.468Z,97950.41
2018-02-16T03:23:47.097Z,97951.27
2018-02-16T03:24:18.722Z,97952.59
2018-02-16T03:24:50.389Z,97957.22
2018-02-16T03:25:22.017Z,97959.36
2018-02-16T03:25:53.645Z,97955.59
2018-02-16T03:26:25.275Z,97957.23
2018-02-16T03:26:56.901Z,97955.11
2018-02-16T03:27:28.570Z,97951.33
2018-02-16T03:28:00.198Z,97948.78
2018-02-16T03:28:31.825Z,97949.20
2018-02-16T03:29:03.450Z,97950.00
2018-02-16T03:29:35.073Z,97943.18
2018-02-16T03:30:06.756Z,97938.94
2018-02-16T03:30:38.385Z,97941.53
2018-02-16T03:31:10.011Z,97943.14
2018-02-16T03:31:41.637Z,97946.54
2018-02-16T03:32:13.262Z,97944.84
2018-02-16T03:32:44.891Z,97937.17
2018-02-16T03:33:16.513Z,97943.08
2018-02-16T03:33:48.141Z,97937.96
2018-02-16T03:34:19.814Z,97938.86
2018-02-16T03:34:51.442Z,97931.23
2018-02-16T03:35:23.122Z,97935.06
2018-02-16T03:35:54.757Z,97944.03
2018-02-16T03:36:26.386Z,97949.14
2018-02-16T03:36:58.009Z,97947.00
2018-02-16T03:37:29.637Z,97951.65
2018-02-16T03:38:01.270Z,97949.50
2018-02-16T03:38:32.897Z,97939.67
2018-02-16T03:39:04.517Z,97937.98
2018-02-16T03:39:36.138Z,97932.44
2018-02-16T03:40:07.770Z,97931.59
2018-02-16T03:40:39.441Z,97943.86
2018-02-16T03:41:11.070Z,97950.44
2018-02-16T03:41:42.698Z,97949.92
2018-02-16T03:42:14.330Z,97951.45
2018-02-16T03:42:45.958Z,97952.30
2018-02-16T03:43:17.581Z,97949.94
2018-02-16T03:43:49.209Z,97953.09
2018-02-16T03:44:20.833Z,97950.30
2018-02-16T03:44:52.454Z,97957.70
2018-02-16T03:45:24.078Z,97966.40
2018-02-16T03:45:55.746Z,97953.80
2018-02-16T03:46:27.382Z,97958.59
2018-02-16T03:46:59.018Z,97949.35
2018-02-16T03:47:30.648Z,97952.38
2018-02-16T03:48:02.272Z,97963.06
2018-02-16T03:48:33.898Z,97963.55
2018-02-16T03:49:05.521Z,97964.42
2018-02-16T03:49:37.141Z,97961.92
2018-02-16T03:50:08.762Z,97970.02
2018-02-16T03:50:40.425Z,97961.98
2018-02-16T03:51:12.084Z,97964.95
2018-02-16T03:51:43.722Z,97960.28
2018-02-16T03:52:15.354Z,97960.27
2018-02-16T03:52:46.983Z,97959.72
2018-02-16T03:53:18.618Z,97963.34
2018-02-16T03:53:50.281Z,97961.03
2018-02-16T03:54:21.906Z,97962.09
2018-02-16T03:54:53.582Z,97964.03
2018-02-16T03:55:25.214Z,97960.88
2018-02-16T03:55:56.842Z,97961.19
2018-02-16T03:56:28.474Z,97961.90
2018-02-16T03:57:00.146Z,97952.91
2018-02-16T03:57:31.769Z,97965.94
2018-02-16T03:58:03.399Z,97965.07
2018-02-16T03:58:35.030Z,97962.70
2018-02-16T03:59:06.654Z,97960.20
2018-02-16T03:59:38.277Z,97965.00
2018-02-16T04:00:09.900Z,97966.41
2018-02-16T04:00:41.582Z,97964.82
2018-02-16T04:01:13.209Z,97967.06
2018-02-16T04:01:44.838Z,97965.43
2018-02-16T04:02:16.462Z,97971.86
2018-02-16T04:02:48.086Z,97968.94
2018-02-16T04:03:19.713Z,97970.64
2018-02-16T04:03:51.354Z,97969.81
2018-02-16T04:04:22.981Z,97973.63
2018-02-16T04:04:54.605Z,97969.80
2018-02-16T04:05:26.229Z,97971.49
2018-02-16T04:05:57.857Z,97976.59
2018-02-16T04:06:29.482Z,97974.00
2018-02-16T04:07:01.105Z,97975.74
2018-02-16T04:07:32.733Z,97981.28
2018-02-16T04:08:04.353Z,97978.73
2018-02-16T04:08:35.978Z,97980.81
2018-02-16T04:09:07.641Z,97981.27
2018-02-16T04:09:39.261Z,97976.98
2018-02-16T04:10:10.890Z,97979.95
2018-02-16T04:10:42.513Z,97978.67
2018-02-16T04:11:14.137Z,97974.85
2018-02-16T04:11:45.757Z,97975.32
2018-02-16T04:12:17.429Z,97982.99
2018-02-16T04:12:49.060Z,97977.50
2018-02-16T04:13:20.689Z,97975.76
2018-02-16T04:13:52.309Z,97974.91
2018-02-16T04:14:23.998Z,97977.08
2018-02-16T04:14:55.621Z,97978.78
2018-02-16T04:15:27.241Z,97979.16
2018-02-16T04:15:58.866Z,97969.38
2018-02-16T04:16:30.493Z,97974.47
2018-02-16T04:17:02.125Z,97975.75
2018-02-16T04:17:33.762Z,97972.34
2018-02-16T04:18:05.390Z,97980.00
2018-02-16T04:18:37.022Z,97977.02
2018-02-16T04:19:08.652Z,97983.36
2018-02-16T04:19:40.322Z,97985.91
2018-02-16T04:20:11.945Z,97993.57
2018-02-16T04:20:43.574Z,97986.80
2018-02-16T04:21:15.206Z,97990.63
2018-02-16T04:21:46.836Z,97994.36
2018-02-16T04:22:18.457Z,97990.16
2018-02-16T04:22:50.086Z,97992.27
2018-02-16T04:23:21.758Z,97991.02
2018-02-16T04:23:53.381Z,97991.91
2018-02-16T04:24:25.017Z,97993.98
2018-02-16T04:24:56.689Z,97995.69
2018-02-16T04:25:28.313Z,97993.99
2018-02-16T04:25:59.933Z,97989.31
2018-02-16T04:26:31.562Z,97990.63
2018-02-16T04:27:03.189Z,97990.58
2018-02-16T04:27:34.813Z,97987.60
2018-02-16T04:28:06.438Z,97990.59
2018-02-16T04:28:38.074Z,97990.20
2018-02-16T04:29:09.706Z,97997.02
2018-02-16T04:29:41.377Z,97996.16
2018-02-16T04:30:13.057Z,97996.59
2018-02-16T04:30:44.689Z,97991.44
2018-02-16T04:31:16.310Z,97991.48
2018-02-16T04:31:47.933Z,97985.11
2018-02-16T04:32:19.553Z,97987.61
2018-02-16T04:32:51.173Z,97992.75
2018-02-16T04:33:22.793Z,97993.14
2018-02-16T04:33:54.413Z,97988.92
2018-02-16T04:34:26.042Z,97988.03
2018-02-16T04:34:57.669Z,97988.47
2018-02-16T04:35:29.293Z,97985.91
2018-02-16T04:36:00.922Z,97988.09
2018-02-16T04:36:32.554Z,97985.97
2018-02-16T04:37:04.186Z,97985.59
2018-02-16T04:37:35.822Z,97985.58
2018-02-16T04:38:07.450Z,97985.55
2018-02-16T04:38:39.074Z,97989.84
2018-02-16T04:39:10.702Z,97985.58
2018-02-16T04:39:42.374Z,97983.88
2018-02-16T04:40:14.006Z,97987.30
2018-02-16T04:40:45.634Z,97982.19
2018-02-16T04:41:17.309Z,97986.48
2018-02-16T04:41:48.933Z,97986.06
2018-02-16T04:42:20.553Z,97988.61
2018-02-16T04:42:52.178Z,97988.19
2018-02-16T04:43:23.802Z,97992.88
2018-02-16T04:43:55.425Z,97992.39
2018-02-16T04:44:27.049Z,97993.67
2018-02-16T04:44:58.717Z,97997.50
2018-02-16T04:45:30.346Z,97991.54
2018-02-16T04:46:01.978Z,97992.02
2018-02-16T04:46:33.605Z,97987.30
2018-02-16T04:47:05.277Z,97979.80
2018-02-16T04:47:36.899Z,97983.47
2018-02-16T04:48:08.521Z,97995.84
2018-02-16T04:48:40.153Z,97988.61
2018-02-16T04:49:11.784Z,97992.88
2018-02-16T04:49:43.414Z,97996.70
2018-02-16T04:50:15.046Z,97990.32
2018-02-16T04:50:46.669Z,97994.63
2018-02-16T04:51:18.294Z,97997.13
2018-02-16T04:51:49.927Z,98002.66
2018-02-16T04:52:21.603Z,98005.20
2018-02-16T04:52:53.229Z,98007.34
2018-02-16T04:53:24.852Z,98006.91
2018-02-16T04:53:56.495Z,98006.91
2018-02-16T04:54:28.121Z,98011.11
2018-02-16T04:54:59.740Z,98010.69
2018-02-16T04:55:31.360Z,98010.73
2018-02-16T04:56:03.030Z,98009.47
2018-02-16T04:56:34.658Z,98000.16
2018-02-16T04:57:06.281Z,98004.37
2018-02-16T04:57:37.901Z,98002.23
2018-02-16T04:58:09.525Z,98003.09
2018-02-16T04:58:41.149Z,98003.13
2018-02-16T04:59:12.778Z,98003.13
2018-02-16T04:59:44.409Z,98001.42
2018-02-16T05:00:16.074Z,98005.69
2018-02-16T05:00:47.697Z,98002.72
2018-02-16T05:01:19.366Z,98009.95
2018-02-16T05:01:50.993Z,98004.05
2018-02-16T05:02:22.621Z,98007.45
2018-02-16T05:02:54.246Z,98007.87
2018-02-16T05:03:25.874Z,98008.34
2018-02-16T05:03:57.502Z,98012.18
2018-02-16T05:04:29.136Z,98009.63
2018-02-16T05:05:00.765Z,98013.04
2018-02-16T05:05:32.429Z,98011.37
2018-02-16T05:06:04.058Z,98016.48
2018-02-16T05:06:35.686Z,98014.36
2018-02-16T05:07:07.314Z,98018.67
2018-02-16T05:07:38.942Z,98021.22
2018-02-16T05:08:10.574Z,98021.27
2018-02-16T05:08:42.201Z,98022.59
2018-02-16T05:09:13.826Z,98026.00
2018-02-16T05:09:45.453Z,98020.09
2018-02-16T05:10:17.122Z,98021.42
2018-02-16T05:10:48.797Z,98023.56
2018-02-16T05:11:20.418Z,98026.98
2018-02-16T05:11:52.046Z,98028.25
2018-02-16T05:12:23.670Z,98024.84
2018-02-16T05:12:55.301Z,98028.25
2018-02-16T05:13:26.926Z,98029.53
2018-02-16T05:13:58.590Z,98029.95
2018-02-16T05:14:30.216Z,98030.05
2018-02-16T05:15:01.909Z,98032.17
2018-02-16T05:15:33.533Z,98033.92
2018-02-16T05:16:05.161Z,98041.58
2018-02-16T05:16:36.790Z,98039.45
2018-02-16T05:17:08.417Z,98035.63
2018-02-16T05:17:40.038Z,98037.80
2018-02-16T05:18:11.661Z,98039.50
2018-02-16T05:18:43.285Z,98035.68
2018-02-16T05:19:14.957Z,98038.66
2018-02-16T05:19:46.582Z,98034.87
2018-02-16T05:20:18.210Z,98042.52
2018-02-16T05:20:49.833Z,98040.45
2018-02-16T05:21:21.460Z,98037.05
2018-02-16T05:21:53.090Z,98039.59
2018-02-16T05:22:24.714Z,98040.02
2018-02-16T05:22:56.342Z,98053.63
2018-02-16T05:23:27.973Z,98047.72
2018-02-16T05:23:59.597Z,98049.37
2018-02-16T05:24:31.229Z,98048.15
2018-02-16T05:25:02.862Z,98048.14
2018-02-16T05:25:34.489Z,98052.77
2018-02-16T05:26:06.109Z,98053.62
2018-02-16T05:26:37.737Z,98058.72
2018-02-16T05:27:09.358Z,98057.41
2018-02-16T05:27:40.982Z,98061.23
2018-02-16T05:28:12.601Z,98059.06
2018-02-16T05:28:44.221Z,98062.49
2018-02-16T05:29:15.845Z,98062.88
2018-02-16T05:29:47.522Z,98064.14
2018-02-16T05:30:19.186Z,98062.41
2018-02-16T05:30:50.814Z,98064.53
2018-02-16T05:31:22.442Z,98068.31
2018-02-16T05:31:54.070Z,98065.34
2018-02-16T05:32:25.718Z,98066.22
2018-02-16T05:32:57.351Z,98072.93
2018-02-16T05:33:28.981Z,98071.22
2018-02-16T05:34:00.617Z,98074.20
2018-02-16T05:34:32.250Z,98069.95
2018-02-16T05:35:03.938Z,98070.80
2018-02-16T05:35:35.561Z,98075.44
2018-02-16T05:36:07.234Z,98080.54
2018-02-16T05:36:38.837Z,98075.02
2018-02-16T05:37:10.461Z,98078.42
2018-02-16T05:37:42.082Z,98074.59
2018-02-16T05:38:13.706Z,98082.23
2018-02-16T05:38:45.329Z,98083.03
2018-02-16T05:39:16.958Z,98084.32
2018-02-16T05:39:48.580Z,98083.05
2018-02-16T05:40:20.240Z,98086.04
2018-02-16T05:40:51.909Z,98088.14
2018-02-16T05:41:23.533Z,98086.02
2018-02-16T05:41:55.162Z,98087.72
2018-02-16T05:42:26.790Z,98091.53
2018-02-16T05:42:58.415Z,98087.31
2018-02-16T05:43:30.047Z,98091.11
2018-02-16T05:44:01.693Z,98090.72
2018-02-16T05:44:33.365Z,98090.72
2018-02-16T05:45:04.992Z,98088.56
2018-02-16T05:45:36.617Z,98085.61
2018-02-16T05:46:08.241Z,98082.64
2018-02-16T05:46:39.874Z,98083.83
2018-02-16T05:47:11.501Z,98094.87
2018-02-16T05:47:43.121Z,98089.34
2018-02-16T05:48:14.813Z,98096.11
2018-02-16T05:48:46.438Z,98098.27
2018-02-16T05:49:18.070Z,98097.80
2018-02-16T05:49:49.702Z,98102.48
2018-02-16T05:50:21.330Z,98108.38
2018-02-16T05:50:52.957Z,98101.63
2018-02-16T05:51:24.590Z,98104.98
2018-02-16T05:51:56.218Z,98105.41
2018-02-16T05:52:27.850Z,98106.69
2018-02-16T05:52:59.481Z,98107.10
2018-02-16T05:53:31.150Z,98113.44
2018-02-16T05:54:02.784Z,98116.41
2018-02-16T05:54:34.411Z,98112.16
2018-02-16T05:55:06.043Z,98116.83
2018-02-16T05:55:37.665Z,98115.14
2018-02-16T05:56:09.295Z,98115.95
2018-02-16T05:56:40.921Z,98108.33
2018-02-16T05:57:12.551Z,98109.89
2018-02-16T05:57:44.217Z,98122.69
2018-02-16T05:58:15.842Z,98115.45
2018-02-16T05:58:47.474Z,98118.44
2018-02-16T05:59:19.101Z,98120.52
2018-02-16T05:59:50.726Z,98118.86
2018-02-16T06:00:22.354Z,98121.84
2018-02-16T06:00:54.034Z,98117.17
2018-02-16T06:01:25.662Z,98126.52
2018-02-16T06:01:57.294Z,98127.75
2018-02-16T06:02:28.925Z,98130.77
2018-02-16T06:03:00.552Z,98124.02
2018-02-16T06:03:32.183Z,98132.09
2018-02-16T06:04:03.809Z,98131.66
2018-02-16T06:04:35.429Z,98131.25
2018-02-16T06:05:07.065Z,98133.80
2018-02-16T06:05:38.695Z,98137.20
2018-02-16T06:06:10.366Z,98136.36
2018-02-16T06:06:41.997Z,98137.58
2018-02-16T06:07:13.621Z,98139.33
2018-02-16T06:07:45.254Z,98139.31
2018-02-16T06:08:16.877Z,98141.45
2018-02-16T06:08:48.516Z,98138.90
2018-02-16T06:09:20.188Z,98144.47
2018-02-16T06:09:51.812Z,98144.44
2018-02-16T06:10:23.433Z,98147.41
2018-02-16T06:10:55.058Z,98146.98
2018-02-16T06:11:26.686Z,98146.17